createdAt,value
2022-08-08T00:00:52.190Z,4.56
2022-08-08T00:00:55.398Z,6.42
2022-08-08T00:02:03.057Z,4.49
2022-08-08T00:02:47.863Z,4.62
2022-08-08T00:03:53.252Z,4.53
2022-08-08T00:04:56.713Z,4.89
2022-08-08T00:06:03.232Z,5.89
2022-08-08T00:07:12.456Z,3.98
2022-08-08T00:08:08.901Z,6.86
2022-08-08T00:09:15.783Z,4.67
2022-08-08T00:10:17.928Z,3.87
2022-08-08T00:11:22.444Z,6.64
2022-08-08T00:12:25.542Z,3.70
2022-08-08T00:14:14.614Z,6.97
2022-08-08T00:14:47.978Z,6.60
2022-08-08T00:15:57.586Z,4.69
2022-08-08T00:16:43.804Z,4.32
2022-08-08T00:18:01.777Z,5.04
2022-08-08T00:18:51.669Z,5.59
2022-08-08T00:19:54.750Z,5.26
2022-08-08T00:20:59.268Z,6.17
2022-08-08T00:22:03.683Z,5.36
2022-08-08T00:23:08.032Z,7.14
2022-08-08T00:24:11.172Z,4.31
2022-08-08T00:25:14.143Z,4.57
2022-08-08T00:26:26.178Z,4.77
2022-08-08T00:27:22.140Z,4.97
2022-08-08T00:28:34.432Z,5.29
2022-08-08T00:29:44.985Z,6.32
2022-08-08T00:30:35.687Z,6.35
2022-08-08T00:32:28.830Z,7.09
2022-08-08T00:32:44.892Z,4.29
2022-08-08T00:34:17.126Z,2.45
2022-08-08T00:34:53.020Z,3.61
2022-08-08T00:35:55.999Z,5.50
2022-08-08T00:37:03.938Z,4.12
2022-08-08T00:38:03.406Z,5.96
2022-08-08T00:41:06.310Z,8.40
2022-08-08T00:41:10.841Z,3.16
2022-08-08T00:41:15.309Z,4.12
2022-08-08T00:42:31.534Z,3.61
2022-08-08T00:43:22.729Z,5.11
2022-08-08T00:44:26.677Z,5.48
2022-08-08T00:45:32.206Z,5.95
2022-08-08T00:46:57.049Z,6.82
2022-08-08T00:48:05.233Z,4.26
2022-08-08T00:48:42.985Z,4.98
2022-08-08T00:49:50.428Z,4.62
2022-08-08T00:50:53.333Z,6.98
2022-08-08T00:51:57.163Z,7.50
2022-08-08T00:53:00.010Z,5.00
2022-08-08T00:54:13.401Z,4.75
2022-08-08T00:55:07.826Z,6.59
2022-08-08T00:56:15.477Z,5.61
2022-08-08T00:57:23.608Z,5.51
2022-08-08T00:58:20.325Z,6.16
2022-08-08T00:59:43.861Z,4.06
2022-08-08T01:00:28.241Z,4.03
2022-08-08T01:01:38.162Z,5.70
2022-08-08T01:03:59.896Z,3.72
2022-08-08T01:04:02.481Z,5.15
2022-08-08T01:04:47.446Z,3.44
2022-08-08T01:05:59.483Z,6.24
2022-08-08T01:07:00.164Z,5.89
2022-08-08T01:07:58.391Z,5.56
2022-08-08T01:09:35.940Z,4.96
2022-08-08T01:10:07.212Z,5.11
2022-08-08T01:11:11.511Z,3.63
2022-08-08T01:12:17.626Z,5.02
2022-08-08T01:13:23.184Z,4.10
2022-08-08T01:14:54.614Z,4.09
2022-08-08T01:15:43.353Z,5.11
2022-08-08T01:16:33.048Z,5.31
2022-08-08T01:17:51.490Z,5.54
2022-08-08T01:18:53.298Z,4.59
2022-08-08T01:20:02.232Z,4.39
2022-08-08T01:20:48.858Z,5.80
2022-08-08T01:22:12.020Z,5.49
2022-08-08T01:22:57.875Z,4.25
2022-08-08T01:24:05.235Z,5.67
2022-08-08T01:25:05.272Z,5.79
2022-08-08T01:26:11.310Z,4.15
2022-08-08T01:27:16.212Z,5.44
2022-08-08T01:28:18.914Z,4.85
2022-08-08T01:29:23.857Z,6.41
2022-08-08T01:30:27.317Z,5.76
2022-08-08T01:32:13.850Z,5.50
2022-08-08T01:32:36.138Z,4.59
2022-08-08T01:33:54.233Z,4.07
2022-08-08T01:34:43.439Z,3.39
2022-08-08T01:35:47.728Z,3.76
2022-08-08T01:36:50.987Z,3.78
2022-08-08T01:37:57.922Z,4.13
2022-08-08T01:38:58.519Z,3.81
2022-08-08T01:40:02.807Z,4.06
2022-08-08T01:41:05.901Z,6.22
2022-08-08T01:42:10.408Z,5.42
2022-08-08T01:43:15.029Z,4.72
2022-08-08T01:44:18.099Z,4.85
2022-08-08T01:45:22.825Z,5.76
2022-08-08T01:46:27.007Z,4.83
2022-08-08T01:48:14.277Z,4.69
2022-08-08T01:48:35.086Z,5.40
2022-08-08T01:49:38.534Z,5.58
2022-08-08T01:50:42.786Z,4.10
2022-08-08T01:52:42.074Z,3.86
2022-08-08T01:54:18.689Z,3.11
2022-08-08T01:55:17.004Z,3.72
2022-08-08T01:55:25.900Z,3.15
2022-08-08T01:56:29.968Z,3.04
2022-08-08T01:57:08.167Z,4.41
2022-08-08T01:58:13.744Z,5.75
2022-08-08T01:59:17.000Z,4.37
2022-08-08T02:00:19.660Z,2.82
2022-08-08T02:01:22.419Z,3.60
2022-08-08T02:02:34.100Z,4.38
2022-08-08T02:03:57.743Z,5.85
2022-08-08T02:04:34.023Z,4.31
2022-08-08T02:05:55.788Z,4.31
2022-08-08T02:06:43.481Z,5.38
2022-08-08T02:07:48.850Z,6.35
2022-08-08T02:08:49.721Z,5.34
2022-08-08T02:10:03.212Z,5.85
2022-08-08T02:10:56.587Z,3.64
2022-08-08T02:12:00.819Z,4.53
2022-08-08T02:13:03.982Z,4.33
2022-08-08T02:14:06.853Z,6.05
2022-08-08T02:15:11.127Z,4.97
2022-08-08T02:16:20.934Z,4.36
2022-08-08T02:17:21.454Z,5.31
2022-08-08T02:18:24.085Z,6.11
2022-08-08T02:20:07.233Z,5.61
2022-08-08T02:21:02.439Z,4.01
2022-08-08T02:21:36.298Z,4.66
2022-08-08T02:22:52.501Z,3.75
2022-08-08T02:23:43.580Z,3.96
2022-08-08T02:24:47.785Z,6.19
2022-08-08T02:25:52.096Z,5.93
2022-08-08T02:26:58.075Z,6.11
2022-08-08T02:27:59.179Z,3.56
2022-08-08T02:29:03.485Z,3.81
2022-08-08T02:30:07.999Z,4.44
2022-08-08T02:31:43.478Z,3.17
2022-08-08T02:32:22.750Z,3.49
2022-08-08T02:33:21.699Z,2.83
2022-08-08T02:34:33.018Z,4.28
2022-08-08T02:35:28.832Z,5.19
2022-08-08T02:36:33.132Z,4.11
2022-08-08T02:37:52.520Z,5.07
2022-08-08T02:38:40.852Z,4.88
2022-08-08T02:39:58.334Z,4.82
2022-08-08T02:40:50.112Z,2.92
2022-08-08T02:42:04.372Z,3.70
2022-08-08T02:44:11.560Z,3.59
2022-08-08T02:44:38.333Z,3.04
2022-08-08T02:45:05.246Z,3.91
2022-08-08T02:46:09.546Z,4.86
2022-08-08T02:47:12.317Z,4.30
2022-08-08T02:48:16.630Z,4.86
2022-08-08T02:49:27.636Z,3.94
2022-08-08T02:50:25.145Z,3.02
2022-08-08T02:51:29.818Z,3.68
2022-08-08T02:52:35.133Z,2.55
2022-08-08T02:53:37.775Z,2.92
2022-08-08T02:54:40.431Z,4.85
2022-08-08T02:55:43.098Z,5.52
2022-08-08T02:56:46.279Z,4.22
2022-08-08T02:57:51.441Z,4.15
2022-08-08T02:58:54.902Z,5.00
2022-08-08T03:00:27.061Z,3.34
2022-08-08T03:01:02.057Z,4.14
2022-08-08T03:02:04.897Z,5.07
2022-08-08T03:03:08.957Z,3.58
2022-08-08T03:05:03.124Z,4.16
2022-08-08T03:05:17.371Z,5.13
2022-08-08T03:06:24.019Z,5.79
2022-08-08T03:07:24.661Z,4.98
2022-08-08T03:08:27.540Z,5.24
2022-08-08T03:09:30.406Z,3.65
2022-08-08T03:10:36.304Z,4.77
2022-08-08T03:12:02.096Z,3.45
2022-08-08T03:13:01.092Z,4.91
2022-08-08T03:15:58.740Z,4.90
2022-08-08T03:16:04.034Z,4.51
2022-08-08T03:16:05.650Z,5.63
2022-08-08T03:17:00.566Z,5.18
2022-08-08T03:18:06.615Z,5.04
2022-08-08T03:19:08.462Z,5.36
2022-08-08T03:20:12.670Z,5.45
2022-08-08T03:21:15.664Z,5.97
2022-08-08T03:22:38.891Z,2.54
2022-08-08T03:23:23.524Z,3.71
2022-08-08T03:24:27.107Z,3.95
2022-08-08T03:25:35.893Z,4.48
2022-08-08T03:26:42.348Z,4.00
2022-08-08T03:27:42.133Z,5.62
2022-08-08T03:28:44.263Z,4.99
2022-08-08T03:29:54.694Z,4.39
2022-08-08T03:31:07.519Z,4.37
2022-08-08T03:32:06.546Z,3.44
2022-08-08T03:33:07.413Z,4.09
2022-08-08T03:34:04.066Z,6.29
2022-08-08T03:35:09.497Z,4.87
2022-08-08T03:36:11.762Z,5.46
2022-08-08T03:37:59.097Z,5.04
2022-08-08T03:38:57.070Z,4.56
2022-08-08T03:39:25.572Z,7.11
2022-08-08T03:40:30.445Z,4.99
2022-08-08T03:42:27.824Z,5.68
2022-08-08T03:42:37.481Z,8.07
2022-08-08T03:43:41.506Z,4.59
2022-08-08T03:44:52.264Z,3.84
2022-08-08T03:46:02.934Z,4.35
2022-08-08T03:46:54.535Z,3.48
2022-08-08T03:47:57.730Z,4.41
2022-08-08T03:49:09.659Z,4.16
2022-08-08T03:50:06.021Z,4.40
2022-08-08T03:51:10.337Z,4.77
2022-08-08T03:52:14.636Z,4.98
2022-08-08T03:53:24.045Z,5.81
2022-08-08T03:54:40.859Z,4.97
2022-08-08T03:55:56.512Z,6.10
2022-08-08T03:56:31.614Z,5.76
2022-08-08T03:58:32.068Z,7.70
2022-08-08T03:58:39.471Z,5.06
2022-08-08T04:00:02.645Z,4.62
2022-08-08T04:01:02.262Z,4.95
2022-08-08T04:02:02.483Z,5.60
2022-08-08T04:02:57.287Z,6.87
2022-08-08T04:04:01.932Z,3.94
2022-08-08T04:05:05.121Z,3.17
2022-08-08T04:06:09.420Z,5.61
2022-08-08T04:07:12.093Z,7.91
2022-08-08T04:08:32.505Z,3.59
2022-08-08T04:09:20.702Z,3.99
2022-08-08T04:10:23.594Z,4.97
2022-08-08T04:11:26.768Z,2.97
2022-08-08T04:12:31.458Z,4.30
2022-08-08T04:14:03.459Z,6.35
2022-08-08T04:14:38.766Z,5.76
2022-08-08T04:15:54.871Z,5.05
2022-08-08T04:16:49.226Z,2.84
2022-08-08T04:17:59.179Z,6.42
2022-08-08T04:18:54.575Z,6.43
2022-08-08T04:19:58.170Z,5.06
2022-08-08T04:21:01.147Z,3.81
2022-08-08T04:22:05.452Z,2.99
2022-08-08T04:23:09.858Z,4.57
2022-08-08T04:24:28.969Z,6.05
2022-08-08T04:25:17.335Z,5.76
2022-08-08T04:26:20.021Z,4.39
2022-08-08T04:28:02.154Z,5.73
2022-08-08T04:28:37.074Z,5.94
2022-08-08T04:29:37.483Z,3.99
2022-08-08T04:30:44.658Z,3.71
2022-08-08T04:31:59.029Z,3.89
2022-08-08T04:32:49.831Z,3.84
2022-08-08T04:33:51.187Z,4.99
2022-08-08T04:34:56.009Z,6.44
2022-08-08T04:35:58.377Z,5.59
2022-08-08T04:37:03.795Z,6.29
2022-08-08T04:38:05.759Z,7.25
2022-08-08T04:39:47.855Z,5.06
2022-08-08T04:40:14.877Z,5.35
2022-08-08T04:41:21.413Z,8.19
2022-08-08T04:42:23.537Z,6.44
2022-08-08T04:43:32.307Z,8.05
2022-08-08T04:44:33.854Z,4.41
2022-08-08T04:45:35.710Z,5.58
2022-08-08T04:46:39.634Z,5.30
2022-08-08T04:47:43.480Z,4.42
2022-08-08T04:48:47.205Z,5.43
2022-08-08T04:49:59.035Z,5.84
2022-08-08T04:50:55.927Z,5.14
2022-08-08T04:52:00.136Z,5.73
2022-08-08T04:53:04.975Z,4.22
2022-08-08T04:54:39.072Z,5.08
2022-08-08T04:55:16.852Z,6.24
2022-08-08T04:56:19.818Z,5.70
2022-08-08T04:57:22.898Z,5.25
2022-08-08T04:58:25.891Z,4.55
2022-08-08T04:59:30.069Z,6.89
2022-08-08T05:00:33.271Z,8.49
2022-08-08T05:01:48.716Z,6.05
2022-08-08T05:02:42.312Z,6.23
2022-08-08T05:04:08.027Z,6.07
2022-08-08T05:04:49.777Z,5.58
2022-08-08T05:05:53.586Z,4.02
2022-08-08T05:06:56.772Z,4.94
2022-08-08T05:07:59.449Z,5.09
2022-08-08T05:09:05.982Z,4.87
2022-08-08T05:10:07.948Z,4.74
2022-08-08T05:11:15.071Z,6.04
2022-08-08T05:12:30.856Z,5.66
2022-08-08T05:13:21.277Z,4.43
2022-08-08T05:14:25.796Z,4.54
2022-08-08T05:16:47.603Z,4.56
2022-08-08T05:16:55.079Z,4.77
2022-08-08T05:17:54.353Z,4.27
2022-08-08T05:18:43.645Z,5.24
2022-08-08T05:20:06.192Z,3.04
2022-08-08T05:20:52.344Z,3.64
2022-08-08T05:21:59.849Z,3.99
2022-08-08T05:23:00.766Z,3.06
2022-08-08T05:24:04.429Z,3.35
2022-08-08T05:25:08.366Z,3.73
2022-08-08T05:26:14.271Z,5.66
2022-08-08T05:27:15.852Z,5.81
2022-08-08T05:28:55.765Z,4.22
2022-08-08T05:29:23.342Z,4.98
2022-08-08T05:30:28.343Z,5.31
2022-08-08T05:32:04.322Z,7.10
2022-08-08T05:32:36.667Z,4.08
2022-08-08T05:33:48.551Z,3.89
2022-08-08T05:34:44.064Z,5.12
2022-08-08T05:35:46.840Z,4.56
2022-08-08T05:36:51.243Z,4.26
2022-08-08T05:37:54.829Z,4.22
2022-08-08T05:38:59.567Z,6.31
2022-08-08T05:40:02.647Z,4.75
2022-08-08T05:41:07.052Z,4.81
2022-08-08T05:42:11.251Z,5.61
2022-08-08T05:43:39.894Z,6.95
2022-08-08T05:44:18.754Z,4.36
2022-08-08T05:45:25.422Z,4.43
2022-08-08T05:46:27.026Z,7.19
2022-08-08T05:47:52.910Z,4.39
2022-08-08T05:48:36.105Z,7.49
2022-08-08T05:49:38.946Z,8.91
2022-08-08T05:50:43.363Z,9.96
2022-08-08T05:51:49.187Z,7.64
2022-08-08T05:52:51.872Z,8.32
2022-08-08T05:54:28.035Z,7.32
2022-08-08T05:55:04.576Z,8.35
2022-08-08T05:56:11.070Z,9.76
2022-08-08T05:57:08.288Z,7.89
2022-08-08T05:58:19.815Z,7.64
2022-08-08T05:59:15.988Z,6.94
2022-08-08T06:00:23.590Z,6.30
2022-08-08T06:01:51.186Z,6.34
2022-08-08T06:02:29.624Z,8.33
2022-08-08T06:03:33.614Z,6.89
2022-08-08T06:04:36.500Z,5.38
2022-08-08T06:05:40.701Z,8.16
2022-08-08T06:06:48.177Z,7.95
2022-08-08T06:07:49.635Z,7.60
2022-08-08T06:08:55.315Z,6.52
2022-08-08T06:10:02.031Z,6.33
2022-08-08T06:11:02.451Z,5.47
2022-08-08T06:12:05.831Z,5.59
2022-08-08T06:13:08.821Z,7.82
2022-08-08T06:14:12.611Z,5.43
2022-08-08T06:15:16.466Z,5.81
2022-08-08T06:16:19.419Z,5.52
2022-08-08T06:17:50.562Z,6.79
2022-08-08T06:18:28.250Z,6.32
2022-08-08T06:19:33.324Z,5.74
2022-08-08T06:20:35.899Z,4.92
2022-08-08T06:21:48.653Z,6.58
2022-08-08T06:22:44.619Z,6.90
2022-08-08T06:24:02.380Z,8.15
2022-08-08T06:24:53.626Z,6.96
2022-08-08T06:26:38.414Z,6.08
2022-08-08T06:27:00.728Z,6.34
2022-08-08T06:28:04.928Z,6.78
2022-08-08T06:29:26.308Z,7.95
2022-08-08T06:30:26.377Z,5.55
2022-08-08T06:31:16.220Z,5.72
2022-08-08T06:32:19.810Z,7.45
2022-08-08T06:33:36.816Z,4.67
2022-08-08T06:34:28.537Z,7.19
2022-08-08T06:36:08.730Z,7.90
2022-08-08T06:36:41.379Z,6.28
2022-08-08T06:37:40.571Z,6.32
2022-08-08T06:38:43.724Z,7.06
2022-08-08T06:39:56.065Z,7.98
2022-08-08T06:40:54.049Z,6.58
2022-08-08T06:41:55.821Z,8.04
2022-08-08T06:42:58.585Z,6.35
2022-08-08T06:44:01.265Z,7.62
2022-08-08T06:45:05.446Z,7.29
2022-08-08T06:46:08.644Z,8.66
2022-08-08T06:47:12.147Z,7.11
2022-08-08T06:48:15.740Z,10.01
2022-08-08T06:49:19.014Z,7.15
2022-08-08T06:50:32.092Z,8.95
2022-08-08T06:51:46.624Z,9.23
2022-08-08T06:52:32.352Z,9.06
2022-08-08T06:53:39.307Z,7.27
2022-08-08T06:54:40.606Z,8.31
2022-08-08T06:55:43.494Z,7.84
2022-08-08T06:56:51.448Z,7.55
2022-08-08T06:57:57.280Z,9.48
2022-08-08T06:58:56.148Z,8.92
2022-08-08T07:00:10.689Z,10.65
2022-08-08T07:01:11.778Z,6.63
2022-08-08T07:02:27.185Z,8.17
2022-08-08T07:03:51.724Z,7.76
2022-08-08T07:04:39.801Z,9.34
2022-08-08T07:05:24.923Z,9.03
2022-08-08T07:06:27.025Z,6.66
2022-08-08T07:07:32.715Z,7.15
2022-08-08T07:08:33.816Z,8.61
2022-08-08T07:09:41.496Z,10.36
2022-08-08T07:10:45.969Z,10.40
2022-08-08T07:11:51.321Z,10.76
2022-08-08T07:12:49.089Z,6.61
2022-08-08T07:14:00.282Z,6.02
2022-08-08T07:14:57.893Z,6.10
2022-08-08T07:16:05.114Z,7.34
2022-08-08T07:17:09.588Z,8.38
2022-08-08T07:18:37.179Z,10.23
2022-08-08T07:19:13.505Z,8.13
2022-08-08T07:20:16.685Z,8.24
2022-08-08T07:21:20.417Z,8.60
2022-08-08T07:22:23.349Z,8.71
2022-08-08T07:23:27.460Z,7.72
2022-08-08T07:24:31.761Z,8.39
2022-08-08T07:25:34.641Z,8.28
2022-08-08T07:26:37.516Z,8.99
2022-08-08T07:28:00.621Z,7.81
2022-08-08T07:28:44.405Z,7.47
2022-08-08T07:30:02.069Z,7.39
2022-08-08T07:30:51.981Z,10.75
2022-08-08T07:31:55.671Z,7.26
2022-08-08T07:32:59.634Z,9.85
2022-08-08T07:34:02.853Z,7.35
2022-08-08T07:35:06.337Z,8.37
2022-08-08T07:36:09.935Z,7.41
2022-08-08T07:37:14.143Z,7.02
2022-08-08T07:38:20.567Z,6.08
2022-08-08T07:39:22.457Z,7.62
2022-08-08T07:40:29.420Z,8.21
2022-08-08T07:41:29.530Z,6.72
2022-08-08T07:42:34.555Z,8.39
2022-08-08T07:43:38.040Z,9.70
2022-08-08T07:44:43.779Z,7.79
2022-08-08T07:46:05.854Z,8.04
2022-08-08T07:46:49.335Z,10.98
2022-08-08T07:47:52.206Z,9.35
2022-08-08T07:48:55.285Z,8.67
2022-08-08T07:49:58.723Z,7.69
2022-08-08T07:51:01.561Z,9.19
2022-08-08T07:52:04.522Z,9.58
2022-08-08T07:53:09.031Z,8.67
2022-08-08T07:54:12.219Z,8.49
2022-08-08T07:55:16.636Z,8.16
2022-08-08T07:56:35.746Z,7.62
2022-08-08T07:57:23.721Z,6.86
2022-08-08T07:58:26.414Z,10.15
2022-08-08T07:59:29.567Z,12.19
2022-08-08T08:00:33.773Z,9.39
2022-08-08T08:02:35.869Z,10.13
2022-08-08T08:02:41.630Z,8.42
2022-08-08T08:03:44.743Z,10.38
2022-08-08T08:04:49.099Z,10.40
2022-08-08T08:05:51.696Z,11.58
2022-08-08T08:06:55.725Z,8.16
2022-08-08T08:07:59.228Z,10.18
2022-08-08T08:09:02.029Z,9.56
2022-08-08T08:10:06.192Z,9.21
2022-08-08T08:11:09.087Z,8.30
2022-08-08T08:12:31.285Z,8.93
2022-08-08T08:13:17.771Z,9.52
2022-08-08T08:14:20.247Z,9.80
2022-08-08T08:15:24.150Z,9.50
2022-08-08T08:16:26.831Z,7.42
2022-08-08T08:17:29.394Z,8.43
2022-08-08T08:18:37.407Z,9.81
2022-08-08T08:19:45.389Z,8.61
2022-08-08T08:20:41.903Z,8.26
2022-08-08T08:21:57.395Z,8.15
2022-08-08T08:22:48.982Z,9.46
2022-08-08T08:23:52.168Z,9.24
2022-08-08T08:24:56.268Z,8.34
2022-08-08T08:26:00.093Z,8.56
2022-08-08T08:27:03.752Z,9.62
2022-08-08T08:28:09.480Z,8.80
2022-08-08T08:29:10.532Z,7.11
2022-08-08T08:30:14.740Z,8.26
2022-08-08T08:31:17.592Z,7.72
2022-08-08T08:32:31.509Z,9.47
2022-08-08T08:33:24.278Z,8.51
2022-08-08T08:34:32.369Z,9.52
2022-08-08T08:36:18.881Z,6.32
2022-08-08T08:36:36.182Z,7.93
2022-08-08T08:38:05.582Z,9.10
2022-08-08T08:38:49.732Z,9.44
2022-08-08T08:40:00.472Z,8.19
2022-08-08T08:40:52.700Z,8.05
2022-08-08T08:41:55.370Z,8.38
2022-08-08T08:42:59.273Z,6.66
2022-08-08T08:44:13.941Z,7.56
2022-08-08T08:45:20.857Z,7.01
2022-08-08T08:46:11.886Z,7.93
2022-08-08T08:47:15.993Z,9.57
2022-08-08T08:48:20.101Z,13.68
2022-08-08T08:49:25.683Z,7.96
2022-08-08T08:50:32.952Z,7.82
2022-08-08T08:51:31.485Z,7.76
2022-08-08T08:52:34.054Z,8.83
2022-08-08T08:54:00.059Z,8.60
2022-08-08T08:54:41.226Z,8.76
2022-08-08T08:55:43.913Z,15.53
2022-08-08T08:56:48.106Z,9.01
2022-08-08T08:57:51.702Z,6.94
2022-08-08T08:58:54.672Z,7.83
2022-08-08T08:59:59.341Z,10.05
2022-08-08T09:01:08.457Z,9.42
2022-08-08T09:02:05.930Z,9.17
2022-08-08T09:03:08.531Z,9.54
2022-08-08T09:04:30.235Z,7.81
2022-08-08T09:05:49.206Z,10.04
2022-08-08T09:06:28.399Z,9.82
2022-08-08T09:07:39.624Z,8.86
2022-08-08T09:08:30.170Z,9.11
2022-08-08T09:09:39.472Z,8.59
2022-08-08T09:10:39.091Z,9.89
2022-08-08T09:11:47.413Z,10.68
2022-08-08T09:12:47.505Z,9.51
2022-08-08T09:13:51.610Z,10.18
2022-08-08T09:14:55.933Z,9.45
2022-08-08T09:16:03.491Z,10.92
2022-08-08T09:17:11.549Z,10.29
2022-08-08T09:18:08.127Z,9.89
2022-08-08T09:19:11.618Z,7.43
2022-08-08T09:21:58.982Z,8.71
2022-08-08T09:22:00.704Z,8.17
2022-08-08T09:22:26.582Z,8.27
2022-08-08T09:23:33.366Z,10.64
2022-08-08T09:24:34.013Z,9.71
2022-08-08T09:25:57.773Z,9.26
2022-08-08T09:26:41.669Z,10.38
2022-08-08T09:27:57.474Z,8.99
2022-08-08T09:28:50.207Z,6.84
2022-08-08T09:29:52.972Z,8.64
2022-08-08T09:30:57.471Z,10.38
2022-08-08T09:32:00.911Z,7.94
2022-08-08T09:33:54.428Z,6.37
2022-08-08T09:34:31.094Z,5.68
2022-08-08T09:35:16.023Z,6.82
2022-08-08T09:36:19.201Z,8.39
2022-08-08T09:37:58.508Z,6.50
2022-08-08T09:38:28.582Z,5.64
2022-08-08T09:39:30.216Z,6.27
2022-08-08T09:40:45.550Z,6.20
2022-08-08T09:41:54.911Z,10.29
2022-08-08T09:42:44.473Z,11.91
2022-08-08T09:44:06.760Z,8.33
2022-08-08T09:44:51.642Z,6.87
2022-08-08T09:46:02.750Z,7.13
2022-08-08T09:47:05.367Z,8.47
2022-08-08T09:48:17.895Z,7.54
2022-08-08T09:49:41.205Z,8.87
2022-08-08T09:50:13.861Z,5.96
2022-08-08T09:51:16.266Z,8.85
2022-08-08T09:52:56.827Z,10.96
2022-08-08T09:53:52.869Z,7.31
2022-08-08T09:54:37.060Z,6.91
2022-08-08T09:56:04.646Z,8.84
2022-08-08T09:56:41.013Z,7.33
2022-08-08T09:57:46.219Z,7.89
2022-08-08T09:58:45.398Z,10.96
2022-08-08T10:00:08.051Z,10.53
2022-08-08T10:00:57.172Z,7.95
2022-08-08T10:01:59.992Z,8.29
2022-08-08T10:03:01.103Z,8.02
2022-08-08T10:04:04.644Z,8.78
2022-08-08T10:05:15.239Z,12.41
2022-08-08T10:06:12.064Z,8.93
2022-08-08T10:07:15.710Z,9.04
2022-08-08T10:08:18.941Z,7.39
2022-08-08T10:09:23.153Z,8.03
2022-08-08T10:10:30.311Z,8.35
2022-08-08T10:12:26.967Z,5.92
2022-08-08T10:12:37.738Z,7.97
2022-08-08T10:13:42.056Z,6.57
2022-08-08T10:14:42.738Z,7.17
2022-08-08T10:16:01.047Z,6.62
2022-08-08T10:16:50.128Z,6.89
2022-08-08T10:18:05.447Z,6.66
2022-08-08T10:18:58.038Z,9.08
2022-08-08T10:20:00.779Z,11.08
2022-08-08T10:21:08.237Z,7.81
2022-08-08T10:22:07.568Z,10.41
2022-08-08T10:23:13.068Z,8.47
2022-08-08T10:24:29.214Z,7.19
2022-08-08T10:25:20.699Z,9.10
2022-08-08T10:26:29.838Z,9.58
2022-08-08T10:27:28.980Z,10.64
2022-08-08T10:28:32.912Z,13.41
2022-08-08T10:29:56.658Z,9.66
2022-08-08T10:31:00.954Z,11.04
2022-08-08T10:31:47.573Z,11.19
2022-08-08T10:32:51.058Z,7.04
2022-08-08T10:34:18.723Z,9.01
2022-08-08T10:34:58.750Z,10.90
2022-08-08T10:36:09.339Z,12.75
2022-08-08T10:37:05.579Z,11.43
2022-08-08T10:38:08.673Z,11.45
2022-08-08T10:39:14.024Z,10.09
2022-08-08T10:40:17.525Z,13.25
2022-08-08T10:41:21.443Z,10.57
2022-08-08T10:42:27.350Z,14.49
2022-08-08T10:43:36.151Z,13.01
2022-08-08T10:44:33.337Z,13.63
2022-08-08T10:45:41.177Z,11.01
2022-08-08T10:46:41.140Z,10.67
2022-08-08T10:47:48.712Z,13.07
2022-08-08T10:48:55.903Z,13.75
2022-08-08T10:50:02.006Z,11.50
2022-08-08T10:50:56.117Z,14.06
2022-08-08T10:51:59.099Z,13.42
2022-08-08T10:53:03.400Z,10.63
2022-08-08T10:54:07.401Z,11.61
2022-08-08T10:55:10.277Z,12.69
2022-08-08T10:56:27.870Z,12.23
2022-08-08T10:57:27.584Z,11.63
2022-08-08T10:58:24.132Z,15.05
2022-08-08T10:59:27.201Z,12.18
2022-08-08T11:00:31.617Z,11.92
2022-08-08T11:01:44.194Z,10.67
2022-08-08T11:02:48.321Z,8.19
2022-08-08T11:04:00.348Z,10.84
2022-08-08T11:04:55.199Z,12.72
2022-08-08T11:06:00.939Z,13.05
2022-08-08T11:07:02.168Z,10.70
2022-08-08T11:08:37.054Z,11.79
2022-08-08T11:09:09.779Z,13.59
2022-08-08T11:10:13.052Z,12.27
2022-08-08T11:11:32.739Z,9.99
2022-08-08T11:12:21.461Z,12.45
2022-08-08T11:13:29.929Z,12.40
2022-08-08T11:14:29.880Z,11.24
2022-08-08T11:15:32.539Z,11.91
2022-08-08T11:16:35.317Z,10.11
2022-08-08T11:18:00.241Z,11.18
2022-08-08T11:18:42.088Z,9.37
2022-08-08T11:19:52.834Z,10.87
2022-08-08T11:20:52.231Z,16.39
2022-08-08T11:21:56.047Z,14.13
2022-08-08T11:22:59.365Z,12.60
2022-08-08T11:24:03.023Z,10.56
2022-08-08T11:25:14.473Z,8.87
2022-08-08T11:26:10.514Z,12.32
2022-08-08T11:27:20.239Z,11.96
2022-08-08T11:28:18.796Z,11.18
2022-08-08T11:29:21.593Z,10.39
2022-08-08T11:30:27.582Z,10.08
2022-08-08T11:31:29.988Z,12.07
2022-08-08T11:32:37.886Z,6.99
2022-08-08T11:33:52.994Z,8.93
2022-08-08T11:34:58.984Z,9.55
2022-08-08T11:35:47.029Z,10.19
2022-08-08T11:36:51.264Z,9.34
2022-08-08T11:38:36.386Z,8.82
2022-08-08T11:38:58.717Z,10.43
2022-08-08T11:40:01.910Z,11.17
2022-08-08T11:41:06.311Z,12.57
2022-08-08T11:42:09.479Z,10.48
2022-08-08T11:43:12.667Z,10.68
2022-08-08T11:44:15.962Z,12.40
2022-08-08T11:45:19.847Z,11.23
2022-08-08T11:46:24.500Z,12.68
2022-08-08T11:47:39.703Z,10.65
2022-08-08T11:48:32.467Z,12.85
2022-08-08T11:49:36.367Z,12.30
2022-08-08T11:50:40.064Z,10.02
2022-08-08T11:51:50.737Z,9.92
2022-08-08T11:52:48.230Z,10.22
2022-08-08T11:53:55.322Z,11.45
2022-08-08T11:54:56.066Z,10.75
2022-08-08T11:55:59.254Z,9.82
2022-08-08T11:57:02.630Z,10.22
2022-08-08T11:58:15.163Z,14.55
2022-08-08T11:59:12.184Z,11.19
2022-08-08T12:00:14.961Z,9.71
2022-08-08T12:01:17.627Z,11.12
2022-08-08T12:02:32.395Z,10.19
2022-08-08T12:03:30.877Z,9.33
2022-08-08T12:04:30.960Z,10.50
2022-08-08T12:05:34.029Z,10.45
2022-08-08T12:06:39.445Z,11.86
2022-08-08T12:07:40.929Z,11.82
2022-08-08T12:08:43.789Z,9.64
2022-08-08T12:09:56.830Z,9.58
2022-08-08T12:10:52.302Z,11.11
2022-08-08T12:11:55.383Z,8.66
2022-08-08T12:12:58.268Z,8.85
2022-08-08T12:14:03.753Z,10.05
2022-08-08T12:15:05.433Z,11.44
2022-08-08T12:16:09.747Z,11.41
2022-08-08T12:17:12.629Z,10.58
2022-08-08T12:18:18.829Z,10.79
2022-08-08T12:19:21.904Z,11.94
2022-08-08T12:20:25.647Z,10.56
2022-08-08T12:21:59.849Z,10.84
2022-08-08T12:22:44.997Z,10.71
2022-08-08T12:23:43.194Z,7.56
2022-08-08T12:24:41.448Z,8.27
2022-08-08T12:25:52.805Z,9.25
2022-08-08T12:26:49.996Z,9.14
2022-08-08T12:27:52.949Z,8.29
2022-08-08T12:28:57.253Z,9.32
2022-08-08T12:30:01.954Z,8.85
2022-08-08T12:31:04.327Z,8.76
2022-08-08T12:32:09.665Z,8.19
2022-08-08T12:33:12.947Z,7.24
2022-08-08T12:34:16.848Z,8.78
2022-08-08T12:35:21.052Z,10.42
2022-08-08T12:36:24.125Z,8.94
2022-08-08T12:37:40.435Z,9.12
2022-08-08T12:38:32.847Z,10.29
2022-08-08T12:39:58.632Z,11.62
2022-08-08T12:40:54.701Z,10.20
2022-08-08T12:41:57.484Z,8.11
2022-08-08T12:42:50.077Z,8.21
2022-08-08T12:44:00.629Z,9.39
2022-08-08T12:44:57.624Z,9.60
2022-08-08T12:46:03.482Z,8.71
2022-08-08T12:47:09.041Z,8.10
2022-08-08T12:48:17.965Z,7.37
2022-08-08T12:49:43.825Z,9.41
2022-08-08T12:50:17.516Z,8.89
2022-08-08T12:51:21.787Z,8.52
2022-08-08T12:52:28.583Z,8.09
2022-08-08T12:53:35.210Z,10.93
2022-08-08T12:54:33.453Z,9.85
2022-08-08T12:56:06.096Z,8.99
2022-08-08T12:56:41.588Z,9.76
2022-08-08T12:57:49.894Z,5.90
2022-08-08T12:58:48.566Z,7.99
2022-08-08T13:00:06.343Z,9.32
2022-08-08T13:00:55.950Z,6.42
2022-08-08T13:01:58.925Z,9.50
2022-08-08T13:03:02.011Z,10.24
2022-08-08T13:04:04.579Z,8.45
2022-08-08T13:05:25.746Z,5.59
2022-08-08T13:06:13.924Z,7.91
2022-08-08T13:07:16.943Z,7.66
2022-08-08T13:08:20.267Z,7.72
2022-08-08T13:09:22.940Z,8.25
2022-08-08T13:10:28.075Z,4.80
2022-08-08T13:12:19.558Z,7.97
2022-08-08T13:12:34.038Z,8.04
2022-08-08T13:13:37.776Z,10.01
2022-08-08T13:14:40.485Z,7.81
2022-08-08T13:15:44.588Z,6.20
2022-08-08T13:16:49.089Z,5.96
2022-08-08T13:18:09.181Z,5.28
2022-08-08T13:19:01.598Z,5.92
2022-08-08T13:20:06.226Z,7.21
2022-08-08T13:21:04.795Z,4.91
2022-08-08T13:22:09.340Z,5.63
2022-08-08T13:23:31.016Z,6.36
2022-08-08T13:24:18.636Z,7.34
2022-08-08T13:25:22.138Z,8.31
2022-08-08T13:26:24.818Z,7.09
2022-08-08T13:27:35.468Z,6.05
2022-08-08T13:28:32.293Z,6.55
2022-08-08T13:29:40.874Z,5.92
2022-08-08T13:30:39.700Z,6.39
2022-08-08T13:31:43.688Z,6.63
2022-08-08T13:32:46.658Z,4.37
2022-08-08T13:33:49.828Z,7.65
2022-08-08T13:34:53.127Z,6.39
2022-08-08T13:35:56.791Z,5.75
2022-08-08T13:36:59.492Z,4.47
2022-08-08T13:38:06.771Z,6.96
2022-08-08T13:39:06.694Z,4.79
2022-08-08T13:40:11.190Z,5.25
2022-08-08T13:41:16.905Z,5.77
2022-08-08T13:42:20.770Z,6.75
2022-08-08T13:43:26.131Z,4.65
2022-08-08T13:44:28.219Z,7.00
2022-08-08T13:45:32.527Z,5.52
2022-08-08T13:46:36.952Z,5.36
2022-08-08T13:47:39.606Z,9.67
2022-08-08T13:48:44.017Z,8.21
2022-08-08T13:50:34.609Z,5.62
2022-08-08T13:50:55.120Z,7.71
2022-08-08T13:51:54.892Z,7.41
2022-08-08T13:52:57.669Z,7.12
2022-08-08T13:54:01.127Z,6.13
2022-08-08T13:55:04.127Z,5.10
2022-08-08T13:56:10.913Z,5.45
2022-08-08T13:57:12.846Z,5.53
2022-08-08T13:58:17.105Z,6.36
2022-08-08T13:59:19.845Z,6.15
2022-08-08T14:00:24.136Z,6.89
2022-08-08T14:01:41.664Z,7.28
2022-08-08T14:02:33.502Z,6.27
2022-08-08T14:03:53.533Z,6.56
2022-08-08T14:04:49.349Z,5.44
2022-08-08T14:06:00.574Z,5.90